Time;durP1;ratioP1;P1;durP2;ratioP2;P2;SDS_P1;SDS_P2;PMS_P1;PMS_P2;Temp;Humidity;BMP_temperature;BMP_pressure;BME280_temperature;BME280_humidity;BME280_pressure;Samples;Min_cycle;Max_cycle;Signal;HPM_P1;HPM_P2
2023/08/06 00:01:48;;;;;;;22.08;20.48;;;15.70;91.00;;;;;;4995436;28;20260;-90
2023/08/06 00:04:13;;;;;;;21.95;20.30;;;15.60;91.20;;;;;;4995493;28;20208;-90
2023/08/06 00:06:39;;;;;;;24.27;22.40;;;15.60;91.30;;;;;;4995505;28;20201;-90
2023/08/06 00:09:05;;;;;;;24.45;22.65;;;15.50;91.50;;;;;;4995606;28;20554;-90
2023/08/06 00:11:30;;;;;;;25.42;23.48;;;15.40;91.70;;;;;;4995372;28;20182;-90
2023/08/06 00:13:56;;;;;;;24.95;22.95;;;15.30;91.90;;;;;;4995282;28;20625;-90
2023/08/06 00:16:21;;;;;;;22.77;21.17;;;15.30;92.10;;;;;;4995461;28;20736;-90
2023/08/06 00:18:47;;;;;;;22.80;21.00;;;15.30;92.30;;;;;;4995281;28;20699;-90
2023/08/06 00:21:12;;;;;;;21.50;19.80;;;15.30;92.50;;;;;;4995278;28;20681;-90
2023/08/06 00:23:39;;;;;;;20.80;18.90;;;15.30;92.60;;;;;;4995352;28;20567;-90
2023/08/06 00:26:04;;;;;;;19.48;17.77;;;15.30;92.60;;;;;;4998309;28;20178;-90
2023/08/06 00:28:30;;;;;;;20.50;18.90;;;15.30;92.70;;;;;;4998936;28;20232;-90
2023/08/06 00:30:56;;;;;;;19.80;18.38;;;15.30;92.80;;;;;;4998994;28;20232;-90
2023/08/06 00:33:22;;;;;;;19.13;17.77;;;15.20;92.80;;;;;;5016929;28;20271;-90
2023/08/06 00:35:48;;;;;;;19.77;18.27;;;15.20;92.90;;;;;;4998780;28;20223;-89
2023/08/06 00:38:13;;;;;;;18.63;16.98;;;15.30;93.10;;;;;;4999488;28;20169;-90
2023/08/06 00:40:39;;;;;;;17.88;16.13;;;15.40;93.20;;;;;;4999494;28;20207;-90
2023/08/06 00:43:04;;;;;;;16.48;15.13;;;15.60;93.40;;;;;;4998718;28;20679;-90
2023/08/06 00:45:33;;;;;;;15.75;14.10;;;15.70;93.30;;;;;;4998805;28;20204;-90
2023/08/06 00:47:59;;;;;;;17.23;15.73;;;15.70;93.30;;;;;;4999144;28;20185;-90
2023/08/06 00:50:25;;;;;;;16.75;15.45;;;15.90;93.40;;;;;;4998900;28;20173;-90
2023/08/06 00:52:51;;;;;;;17.08;15.77;;;15.90;93.00;;;;;;4998855;28;20189;-89
2023/08/06 00:55:16;;;;;;;16.33;15.15;;;15.80;93.00;;;;;;4998504;28;20198;-90
2023/08/06 00:57:42;;;;;;;17.63;16.23;;;15.80;93.00;;;;;;4998789;28;20180;-90
2023/08/06 01:00:08;;;;;;;17.27;16.08;;;16.00;93.00;;;;;;4998641;28;20268;-89
2023/08/06 01:02:34;;;;;;;18.55;17.02;;;15.90;92.80;;;;;;4998151;28;20255;-89
2023/08/06 01:04:59;;;;;;;18.83;17.42;;;15.90;92.60;;;;;;4998106;28;20190;-90
2023/08/06 01:07:49;;;;;;;20.88;18.75;;;15.80;92.40;;;;;;4998510;28;20178;-89
2023/08/06 01:10:26;;;;;;;21.88;19.63;;;15.60;92.40;;;;;;4998927;28;20169;-89
2023/08/06 01:12:58;;;;;;;21.58;19.77;;;15.50;92.40;;;;;;4998858;28;20173;-90
2023/08/06 01:15:30;;;;;;;23.48;21.35;;;15.50;92.50;;;;;;4998288;28;20205;-89
2023/08/06 01:17:56;;;;;;;23.92;21.98;;;15.50;92.60;;;;;;5015461;28;20153;-89
2023/08/06 01:20:22;;;;;;;24.98;22.65;;;15.40;92.60;;;;;;4997872;28;20276;-89
2023/08/06 01:22:47;;;;;;;24.90;22.73;;;15.40;92.60;;;;;;4998695;28;20300;-89
2023/08/06 01:25:16;;;;;;;24.92;23.02;;;15.30;92.70;;;;;;4998116;28;20224;-89
2023/08/06 01:27:49;;;;;;;26.05;23.90;;;15.30;92.80;;;;;;4998046;28;20260;-89
2023/08/06 01:30:27;;;;;;;24.83;22.95;;;15.30;92.90;;;;;;4997674;28;20212;-89
2023/08/06 01:32:59;;;;;;;25.10;23.00;;;15.30;93.00;;;;;;4997520;28;20731;-89
2023/08/06 01:35:26;;;;;;;27.60;24.30;;;15.20;93.00;;;;;;4997535;28;20194;-90
2023/08/06 01:37:52;;;;;;;26.63;24.42;;;15.20;93.00;;;;;;4997204;28;20181;-90
2023/08/06 01:40:17;;;;;;;27.02;24.30;;;15.20;93.20;;;;;;4997610;28;20657;-89
2023/08/06 01:42:43;;;;;;;27.15;24.73;;;15.10;93.30;;;;;;4997484;28;20197;-90
2023/08/06 01:45:10;;;;;;;28.05;25.63;;;15.10;93.40;;;;;;4997399;28;20197;-89
2023/08/06 01:47:35;;;;;;;27.10;24.50;;;15.10;93.50;;;;;;4997338;28;20177;-89
2023/08/06 01:50:01;;;;;;;26.45;24.25;;;15.10;93.60;;;;;;4997894;28;20208;-89
2023/08/06 01:52:27;;;;;;;26.65;24.52;;;15.00;93.60;;;;;;4997267;28;20532;-89
2023/08/06 01:54:52;;;;;;;27.65;25.02;;;15.00;93.60;;;;;;4997903;28;20679;-89
2023/08/06 01:57:18;;;;;;;29.27;26.30;;;15.00;93.70;;;;;;4997119;28;20185;-89
2023/08/06 01:59:44;;;;;;;26.60;24.30;;;15.00;93.70;;;;;;5014953;28;20547;-89
2023/08/06 02:02:09;;;;;;;27.20;24.80;;;15.10;93.80;;;;;;4996986;28;20208;-90
2023/08/06 02:04:35;;;;;;;29.05;26.45;;;15.00;93.90;;;;;;5014516;28;20221;-89
2023/08/06 02:07:00;;;;;;;26.95;24.77;;;15.10;93.90;;;;;;4997601;28;20596;-89
2023/08/06 02:09:26;;;;;;;27.90;25.30;;;15.10;94.00;;;;;;4997005;28;20645;-89
2023/08/06 02:11:51;;;;;;;27.88;25.58;;;15.10;94.00;;;;;;4996943;28;20181;-90
2023/08/06 02:14:17;;;;;;;27.15;24.83;;;15.00;94.00;;;;;;4996840;28;20711;-89
2023/08/06 02:16:42;;;;;;;27.52;24.83;;;15.00;94.00;;;;;;4996772;28;20200;-89
2023/08/06 02:19:08;;;;;;;27.52;25.20;;;15.00;94.00;;;;;;4996945;28;20228;-89
2023/08/06 02:21:33;;;;;;;26.40;24.33;;;15.00;94.10;;;;;;4996650;28;20201;-89
2023/08/06 02:23:59;;;;;;;28.20;25.75;;;15.00;94.10;;;;;;4997050;28;20371;-90
2023/08/06 02:26:25;;;;;;;28.35;25.95;;;15.00;94.10;;;;;;4996618;28;20177;-90
2023/08/06 02:28:50;;;;;;;28.52;26.15;;;15.10;94.20;;;;;;4996670;28;20180;-89
2023/08/06 02:31:16;;;;;;;27.45;24.98;;;15.10;94.20;;;;;;4996358;28;20185;-90
2023/08/06 02:33:41;;;;;;;28.92;25.17;;;15.10;94.20;;;;;;4996447;28;20180;-90
2023/08/06 02:36:07;;;;;;;27.58;25.15;;;15.10;94.20;;;;;;4996737;28;20177;-89
2023/08/06 02:38:33;;;;;;;27.45;25.35;;;15.00;94.20;;;;;;4996536;28;20665;-89
2023/08/06 02:40:58;;;;;;;28.95;26.13;;;15.00;94.20;;;;;;4996325;28;20179;-89
2023/08/06 02:43:24;;;;;;;29.20;26.73;;;15.00;94.20;;;;;;4996808;28;20170;-89
2023/08/06 02:45:49;;;;;;;30.15;27.45;;;15.00;94.20;;;;;;4996354;28;20228;-89
2023/08/06 02:48:15;;;;;;;31.00;28.17;;;15.00;94.20;;;;;;4995356;28;20268;-89
2023/08/06 02:50:41;;;;;;;30.10;27.65;;;15.00;94.20;;;;;;4996599;28;20181;-89
2023/08/06 02:53:08;;;;;;;29.92;27.02;;;14.90;94.20;;;;;;4996499;28;20181;-89
2023/08/06 02:55:34;;;;;;;29.98;27.52;;;14.90;94.20;;;;;;4995997;28;20201;-89
2023/08/06 02:58:03;;;;;;;30.55;27.98;;;14.90;94.20;;;;;;4996229;28;20204;-90
2023/08/06 03:00:28;;;;;;;29.70;27.00;;;14.90;94.20;;;;;;4996078;28;20185;-89
2023/08/06 03:02:54;;;;;;;29.83;27.25;;;14.90;94.20;;;;;;4996084;28;20583;-89
2023/08/06 03:05:19;;;;;;;28.08;25.60;;;14.90;94.20;;;;;;4996072;28;20193;-89
2023/08/06 03:07:45;;;;;;;29.15;26.83;;;14.90;94.30;;;;;;4995944;28;20177;-89
2023/08/06 03:10:10;;;;;;;29.48;27.02;;;15.00;94.30;;;;;;4996046;28;20223;-89
2023/08/06 03:12:36;;;;;;;28.90;25.85;;;14.90;94.30;;;;;;4997087;28;20177;-89
2023/08/06 03:15:02;;;;;;;25.95;23.48;;;15.00;94.40;;;;;;4995828;28;20235;-89
2023/08/06 03:17:27;;;;;;;24.52;22.42;;;15.00;94.40;;;;;;4995963;28;20192;-89
2023/08/06 03:19:53;;;;;;;25.70;23.35;;;15.10;94.40;;;;;;5013688;28;20176;-89
2023/08/06 03:22:18;;;;;;;26.52;24.45;;;15.10;94.40;;;;;;4995970;28;20231;-89
2023/08/06 03:24:44;;;;;;;28.55;26.17;;;15.10;94.40;;;;;;4995849;28;20216;-89
2023/08/06 03:27:09;;;;;;;27.35;25.35;;;15.20;94.30;;;;;;4995808;28;20177;-89
2023/08/06 03:29:35;;;;;;;28.83;26.63;;;15.00;94.20;;;;;;4995925;28;20173;-89
2023/08/06 03:32:00;;;;;;;27.67;25.63;;;15.00;94.20;;;;;;5013582;28;20587;-89
2023/08/06 03:34:26;;;;;;;28.27;25.70;;;15.00;94.30;;;;;;4995672;28;20251;-89
2023/08/06 03:36:51;;;;;;;28.92;26.17;;;15.00;94.30;;;;;;4995753;28;20181;-89
2023/08/06 03:39:17;;;;;;;28.40;26.13;;;15.10;94.30;;;;;;4995873;28;20231;-89
2023/08/06 03:41:42;;;;;;;27.83;25.73;;;15.00;94.30;;;;;;4996046;28;20197;-89
2023/08/06 03:44:08;;;;;;;27.67;25.48;;;15.00;94.30;;;;;;5013273;28;20201;-89
2023/08/06 03:46:33;;;;;;;29.83;27.08;;;15.00;94.20;;;;;;4995714;28;20176;-88
2023/08/06 03:49:00;;;;;;;29.45;27.05;;;15.00;94.20;;;;;;4995896;28;20181;-89
2023/08/06 03:51:25;;;;;;;27.35;25.25;;;15.00;94.20;;;;;;4995561;28;20209;-89
2023/08/06 03:53:51;;;;;;;28.58;25.98;;;14.90;94.20;;;;;;4995796;28;20201;-89
2023/08/06 03:56:16;;;;;;;30.85;28.08;;;14.90;94.20;;;;;;4995888;28;20173;-89
2023/08/06 03:58:42;;;;;;;31.35;28.17;;;14.80;94.20;;;;;;4995988;28;20240;-89
2023/08/06 04:01:08;;;;;;;29.65;27.30;;;14.90;94.20;;;;;;5016368;28;20225;-88
2023/08/06 04:03:33;;;;;;;29.40;27.00;;;14.90;94.20;;;;;;4999311;28;20594;-89
2023/08/06 04:05:59;;;;;;;29.75;27.25;;;14.90;94.20;;;;;;4999279;28;20174;-89
2023/08/06 04:08:25;;;;;;;30.05;27.50;;;14.90;94.30;;;;;;4999566;28;20189;-89
2023/08/06 04:10:52;;;;;;;28.50;26.02;;;14.80;94.30;;;;;;4999185;28;20632;-89
2023/08/06 04:13:18;;;;;;;30.27;27.65;;;14.90;94.30;;;;;;4999224;28;20731;-89
2023/08/06 04:15:43;;;;;;;30.80;28.60;;;14.80;94.30;;;;;;4999055;28;20201;-89
2023/08/06 04:18:09;;;;;;;31.65;28.83;;;14.80;94.40;;;;;;4999335;28;20181;-89
2023/08/06 04:20:34;;;;;;;30.33;26.77;;;14.90;94.40;;;;;;4999036;28;20184;-89
2023/08/06 04:23:06;;;;;;;29.42;27.10;;;14.90;94.50;;;;;;4998934;28;20287;-89
2023/08/06 04:25:31;;;;;;;31.52;28.70;;;14.80;94.50;;;;;;4998869;28;20193;-89
2023/08/06 04:27:57;;;;;;;30.77;28.30;;;14.90;94.50;;;;;;4998886;28;20181;-89
2023/08/06 04:30:22;;;;;;;30.85;28.15;;;14.90;94.60;;;;;;4998911;28;20181;-89
2023/08/06 04:32:50;;;;;;;29.85;27.65;;;14.90;94.60;;;;;;4998929;28;20193;-89
2023/08/06 04:35:15;;;;;;;30.30;28.00;;;14.90;94.60;;;;;;4999156;28;20198;-89
2023/08/06 04:37:41;;;;;;;32.63;29.63;;;14.90;94.60;;;;;;4998707;28;20178;-89
2023/08/06 04:40:07;;;;;;;31.45;28.63;;;14.90;94.60;;;;;;4998827;28;20656;-89
2023/08/06 04:42:33;;;;;;;31.75;28.90;;;14.90;94.60;;;;;;4998559;28;20205;-89
2023/08/06 04:44:58;;;;;;;30.35;27.77;;;14.90;94.70;;;;;;4999038;28;20193;-90
2023/08/06 04:47:25;;;;;;;32.03;29.52;;;14.90;94.70;;;;;;4998511;28;20235;-89
2023/08/06 04:49:51;;;;;;;30.33;28.15;;;14.90;94.60;;;;;;4998752;28;20265;-89
2023/08/06 04:52:16;;;;;;;29.83;27.73;;;15.00;94.70;;;;;;4999462;28;20268;-89
2023/08/06 04:54:43;;;;;;;31.77;28.70;;;14.90;94.70;;;;;;4998852;28;20200;-89
2023/08/06 04:57:09;;;;;;;30.80;28.35;;;14.90;94.70;;;;;;4998298;28;20181;-88
2023/08/06 04:59:35;;;;;;;30.50;28.02;;;14.90;94.70;;;;;;4998572;28;20177;-89
2023/08/06 05:02:01;;;;;;;30.67;27.83;;;14.90;94.70;;;;;;4998229;28;20233;-89
2023/08/06 05:04:27;;;;;;;31.30;28.70;;;14.90;94.70;;;;;;4998419;28;20553;-89
2023/08/06 05:06:52;;;;;;;31.30;28.63;;;14.90;94.70;;;;;;4998634;28;20272;-89
2023/08/06 05:09:18;;;;;;;30.55;28.15;;;14.90;94.70;;;;;;4998492;28;20216;-89
2023/08/06 05:11:43;;;;;;;31.05;28.45;;;14.90;94.70;;;;;;4997184;28;20246;-89
2023/08/06 05:14:09;;;;;;;32.03;29.73;;;14.90;94.70;;;;;;4998406;28;20287;-89
2023/08/06 05:16:34;;;;;;;32.38;29.30;;;14.90;94.70;;;;;;4998068;28;20182;-89
2023/08/06 05:19:00;;;;;;;31.95;28.88;;;14.90;94.70;;;;;;4998736;28;20311;-89
2023/08/06 05:21:25;;;;;;;32.05;29.13;;;14.90;94.70;;;;;;4997805;28;20204;-89
2023/08/06 05:23:51;;;;;;;31.40;29.00;;;14.90;94.70;;;;;;4998397;28;20739;-89
2023/08/06 05:26:18;;;;;;;31.45;28.95;;;14.90;94.70;;;;;;4997728;28;20173;-89
2023/08/06 05:28:44;;;;;;;32.15;29.65;;;14.90;94.70;;;;;;4997957;28;20676;-89
2023/08/06 05:31:10;;;;;;;32.10;29.58;;;14.90;94.70;;;;;;5015139;28;20248;-89
2023/08/06 05:33:35;;;;;;;32.92;30.17;;;14.90;94.70;;;;;;4997400;28;20283;-89
2023/08/06 05:36:01;;;;;;;34.75;32.15;;;14.90;94.70;;;;;;4997578;28;20654;-89
2023/08/06 05:38:27;;;;;;;34.50;32.00;;;14.90;94.70;;;;;;4997573;28;20743;-89
2023/08/06 05:40:52;;;;;;;33.53;31.03;;;14.90;94.70;;;;;;4998014;28;20641;-89
2023/08/06 05:43:18;;;;;;;34.30;31.27;;;15.00;94.70;;;;;;4997441;28;20209;-89
2023/08/06 05:45:49;;;;;;;34.47;31.95;;;15.00;94.70;;;;;;4997298;28;20276;-89
2023/08/06 05:48:14;;;;;;;34.25;31.58;;;15.00;94.70;;;;;;4997415;28;20173;-89
2023/08/06 05:50:39;;;;;;;36.17;33.10;;;15.00;94.70;;;;;;4997720;28;20256;-89
2023/08/06 05:53:05;;;;;;;34.25;31.85;;;15.00;94.70;;;;;;4997427;28;20223;-89
2023/08/06 05:55:32;;;;;;;33.53;30.83;;;15.10;94.70;;;;;;4997246;28;20193;-89
2023/08/06 05:57:57;;;;;;;32.30;29.77;;;15.20;94.70;;;;;;4997154;28;20181;-89
2023/08/06 06:00:23;;;;;;;35.08;32.50;;;15.20;94.60;;;;;;4997155;28;20193;-89
2023/08/06 06:02:48;;;;;;;34.50;31.95;;;15.20;94.60;;;;;;4996934;28;20243;-89
2023/08/06 06:05:14;;;;;;;35.70;32.95;;;15.30;94.70;;;;;;4997005;28;20598;-89
2023/08/06 06:07:39;;;;;;;37.42;34.55;;;15.30;94.60;;;;;;4997054;28;20645;-89
2023/08/06 06:10:06;;;;;;;36.78;33.65;;;15.30;94.50;;;;;;4998083;28;20223;-89
2023/08/06 06:12:31;;;;;;;36.67;33.85;;;15.30;94.50;;;;;;5014389;28;20169;-89
2023/08/06 06:14:57;;;;;;;34.80;32.30;;;15.40;94.60;;;;;;4997125;28;20233;-88
2023/08/06 06:17:22;;;;;;;36.25;33.03;;;15.40;94.50;;;;;;4996921;28;20224;-89
2023/08/06 06:19:48;;;;;;;35.63;32.72;;;15.50;94.60;;;;;;4996909;28;20193;-89
2023/08/06 06:22:14;;;;;;;36.70;33.85;;;15.50;94.40;;;;;;5014022;28;20204;-89
2023/08/06 06:24:39;;;;;;;36.00;33.33;;;15.50;94.40;;;;;;5014144;28;20200;-89
2023/08/06 06:27:05;;;;;;;34.40;31.83;;;15.50;94.30;;;;;;4996637;28;20197;-89
2023/08/06 06:29:30;;;;;;;35.75;33.05;;;15.60;94.30;;;;;;4996660;28;20642;-88
2023/08/06 06:31:56;;;;;;;34.13;31.17;;;15.60;94.30;;;;;;4996527;28;20193;-89
2023/08/06 06:34:22;;;;;;;34.35;31.80;;;15.70;94.30;;;;;;4996979;28;20206;-89
2023/08/06 06:36:47;;;;;;;36.58;33.38;;;15.70;94.20;;;;;;4997353;28;20180;-89
2023/08/06 06:39:13;;;;;;;35.33;32.33;;;15.70;94.10;;;;;;4996615;28;20264;-89
2023/08/06 06:41:39;;;;;;;36.55;33.72;;;15.80;94.20;;;;;;4996333;28;20205;-89
2023/08/06 06:44:05;;;;;;;35.55;32.53;;;15.80;94.20;;;;;;4997334;28;20539;-89
2023/08/06 06:46:31;;;;;;;33.47;31.08;;;15.90;94.20;;;;;;5013866;28;20169;-88
2023/08/06 06:48:56;;;;;;;36.97;34.10;;;15.90;94.00;;;;;;4997075;28;20196;-88
2023/08/06 06:51:22;;;;;;;34.22;31.25;;;16.00;94.10;;;;;;4996309;28;20177;-89
2023/08/06 06:53:48;;;;;;;32.17;29.60;;;16.00;94.00;;;;;;4996146;28;20184;-88
2023/08/06 06:56:13;;;;;;;33.60;30.65;;;16.00;93.90;;;;;;5013719;28;20244;-89
2023/08/06 06:58:40;;;;;;;32.60;29.83;;;16.00;93.70;;;;;;4996176;28;20231;-89
2023/08/06 07:01:06;;;;;;;31.95;29.38;;;16.10;93.80;;;;;;5013957;28;20170;-89
2023/08/06 07:03:32;;;;;;;33.22;30.85;;;16.00;93.60;;;;;;4996065;28;20173;-89
2023/08/06 07:05:59;;;;;;;33.65;30.08;;;16.10;93.50;;;;;;4996102;28;20196;-89
2023/08/06 07:08:25;;;;;;;34.30;31.38;;;16.20;93.50;;;;;;4995968;28;20624;-89
2023/08/06 07:10:50;;;;;;;36.05;29.75;;;16.20;93.50;;;;;;4995909;28;20260;-89
2023/08/06 07:13:16;;;;;;;31.55;28.83;;;16.20;93.40;;;;;;5013792;28;20178;-89
2023/08/06 07:15:42;;;;;;;31.85;29.52;;;16.20;93.30;;;;;;4996168;28;20208;-89
2023/08/06 07:18:07;;;;;;;32.08;29.48;;;16.20;93.20;;;;;;4996205;28;20185;-89
2023/08/06 07:20:34;;;;;;;30.10;27.80;;;16.30;93.10;;;;;;4996054;28;20213;-89
2023/08/06 07:23:00;;;;;;;28.27;25.77;;;16.30;92.80;;;;;;4995778;28;20220;-89
2023/08/06 07:25:26;;;;;;;29.02;26.30;;;16.30;92.70;;;;;;5013281;28;20193;-89
2023/08/06 07:27:51;;;;;;;31.58;29.17;;;16.40;92.60;;;;;;4995730;28;20212;-89
2023/08/06 07:30:17;;;;;;;29.35;27.20;;;16.50;92.50;;;;;;4996102;28;20176;-89
2023/08/06 07:32:42;;;;;;;31.25;28.63;;;16.40;92.10;;;;;;4995815;28;20197;-89
2023/08/06 07:35:12;;;;;;;29.65;27.05;;;16.60;92.20;;;;;;4997813;28;20197;-89
2023/08/06 07:37:38;;;;;;;29.27;26.70;;;16.60;92.00;;;;;;5000607;28;20231;-89
2023/08/06 07:40:04;;;;;;;29.05;26.83;;;16.60;91.60;;;;;;4999772;28;20214;-89
2023/08/06 07:42:30;;;;;;;28.73;26.38;;;16.60;91.40;;;;;;4999864;28;20255;-89
2023/08/06 07:44:58;;;;;;;27.52;25.35;;;16.70;91.30;;;;;;4999776;28;20197;-90
2023/08/06 07:47:23;;;;;;;27.42;25.33;;;16.70;91.10;;;;;;5017172;28;20178;-89
2023/08/06 07:49:49;;;;;;;28.08;25.88;;;16.70;90.80;;;;;;5000089;28;20180;-90
2023/08/06 07:52:15;;;;;;;28.77;26.35;;;16.80;90.80;;;;;;4999800;28;20184;-89
2023/08/06 07:54:40;;;;;;;29.17;26.77;;;16.80;90.50;;;;;;4999757;28;20569;-90
2023/08/06 07:57:06;;;;;;;28.70;25.75;;;16.90;90.50;;;;;;4999832;28;20649;-89
2023/08/06 07:59:32;;;;;;;28.75;26.65;;;16.90;90.30;;;;;;5017076;28;20265;-89
2023/08/06 08:01:57;;;;;;;28.73;26.13;;;17.10;90.50;;;;;;4999530;28;20208;-90
2023/08/06 08:04:23;;;;;;;36.50;33.70;;;17.10;90.30;;;;;;4999339;28;20684;-90
2023/08/06 08:06:49;;;;;;;39.83;36.90;;;17.00;89.80;;;;;;4999161;28;20208;-90
2023/08/06 08:09:14;;;;;;;41.53;38.58;;;17.00;89.90;;;;;;4999225;28;20174;-90
2023/08/06 08:11:41;;;;;;;43.47;40.10;;;17.20;90.10;;;;;;4999129;28;20177;-90
2023/08/06 08:14:06;;;;;;;29.00;26.63;;;17.10;89.80;;;;;;4999159;28;20201;-90
2023/08/06 08:16:32;;;;;;;29.67;27.33;;;17.10;89.80;;;;;;4999240;28;20642;-90
2023/08/06 08:18:58;;;;;;;25.95;23.75;;;17.10;89.90;;;;;;4999231;28;20185;-90
2023/08/06 08:21:24;;;;;;;27.17;24.98;;;17.10;89.70;;;;;;5000377;28;20228;-90
2023/08/06 08:23:53;;;;;;;25.65;23.73;;;17.10;89.70;;;;;;4998950;28;20704;-90
2023/08/06 08:26:18;;;;;;;24.90;22.88;;;17.00;89.30;;;;;;4998917;28;20188;-89
2023/08/06 08:28:44;;;;;;;26.80;24.77;;;17.00;89.00;;;;;;4999103;28;20649;-90
2023/08/06 08:31:11;;;;;;;25.85;23.70;;;17.10;89.40;;;;;;4998995;28;20653;-90
2023/08/06 08:33:37;;;;;;;23.90;22.10;;;17.20;89.40;;;;;;4998652;28;20185;-91
2023/08/06 08:36:03;;;;;;;25.70;23.73;;;17.20;89.10;;;;;;4999106;28;20169;-90
2023/08/06 08:38:28;;;;;;;27.20;25.08;;;17.20;89.00;;;;;;4998731;28;20552;-90
2023/08/06 08:40:54;;;;;;;27.08;24.67;;;17.20;89.00;;;;;;4999052;28;20189;-90
2023/08/06 08:43:22;;;;;;;26.05;23.67;;;17.40;89.10;;;;;;4998557;28;20205;-90
2023/08/06 08:45:51;;;;;;;25.98;23.58;;;17.40;89.00;;;;;;5014996;28;20662;-90
2023/08/06 08:48:19;;;;;;;26.08;23.40;;;17.30;88.40;;;;;;4998250;28;20201;-90
2023/08/06 08:50:46;;;;;;;25.48;23.38;;;17.20;87.90;;;;;;4998469;28;20181;-90
2023/08/06 08:53:13;;;;;;;24.00;22.10;;;17.30;88.00;;;;;;4998529;28;20184;-90
2023/08/06 08:55:40;;;;;;;24.98;22.80;;;17.40;87.80;;;;;;4998512;28;20205;-91
2023/08/06 08:58:06;;;;;;;24.60;22.55;;;17.50;88.00;;;;;;4998349;28;20227;-91
2023/08/06 09:00:32;;;;;;;24.88;23.08;;;17.60;87.70;;;;;;4998394;28;20676;-90
2023/08/06 09:02:59;;;;;;;23.40;21.60;;;17.60;87.50;;;;;;4998284;28;20198;-91
2023/08/06 09:05:28;;;;;;;24.25;22.00;;;17.60;87.40;;;;;;4998176;28;20247;-90
2023/08/06 09:07:55;;;;;;;34.90;32.50;;;17.60;87.20;;;;;;4998473;28;20177;-90
2023/08/06 09:10:23;;;;;;;37.70;35.05;;;17.60;87.10;;;;;;4998043;28;20223;-89
2023/08/06 09:12:51;;;;;;;38.60;35.60;;;17.70;87.30;;;;;;4998893;28;20181;-90
2023/08/06 09:15:16;;;;;;;24.58;22.38;;;17.70;86.60;;;;;;4998089;28;20197;-90
2023/08/06 09:17:42;;;;;;;25.02;22.95;;;17.70;86.80;;;;;;4997997;28;20181;-90
2023/08/06 09:20:12;;;;;;;34.30;31.48;;;17.80;87.20;;;;;;4997994;28;20238;-90
2023/08/06 09:22:38;;;;;;;36.35;33.42;;;17.70;86.90;;;;;;4997907;28;20583;-90
2023/08/06 09:25:09;;;;;;;23.02;20.85;;;17.80;87.10;;;;;;4997911;28;20193;-90
2023/08/06 09:27:35;;;;;;;23.70;21.42;;;17.70;86.50;;;;;;4997976;28;20243;-91
2023/08/06 09:30:01;;;;;;;24.05;22.15;;;17.70;86.40;;;;;;4998301;28;20556;-89
2023/08/06 09:32:26;;;;;;;22.52;20.48;;;17.80;86.50;;;;;;5015536;28;20193;-90
2023/08/06 09:34:56;;;;;;;22.13;20.27;;;17.80;86.30;;;;;;4997765;28;20294;-90
2023/08/06 09:37:22;;;;;;;22.33;20.80;;;17.80;85.90;;;;;;4997798;28;20185;-89
2023/08/06 09:39:47;;;;;;;22.08;20.15;;;17.80;85.80;;;;;;4997545;28;20177;-90
2023/08/06 09:42:15;;;;;;;22.65;20.58;;;17.80;85.70;;;;;;4997501;28;20205;-90
2023/08/06 09:44:40;;;;;;;21.45;19.58;;;17.90;85.90;;;;;;4997448;28;20196;-89
2023/08/06 09:47:06;;;;;;;20.92;19.23;;;18.00;85.80;;;;;;5014991;28;20177;-89
2023/08/06 09:49:32;;;;;;;21.70;19.73;;;17.90;84.80;;;;;;4997571;28;20173;-90
2023/08/06 09:51:59;;;;;;;20.85;19.15;;;18.00;85.10;;;;;;4997410;28;20177;-89
2023/08/06 09:54:27;;;;;;;22.35;20.60;;;17.90;84.50;;;;;;4997331;28;20781;-89
2023/08/06 09:56:56;;;;;;;21.77;19.88;;;18.00;84.40;;;;;;4997955;28;20185;-89
2023/08/06 09:59:23;;;;;;;22.77;21.05;;;18.00;85.00;;;;;;5014829;28;20252;-89
2023/08/06 10:01:49;;;;;;;21.92;20.05;;;18.20;85.90;;;;;;4997175;28;20291;-87
2023/08/06 10:04:18;;;;;;;22.25;20.27;;;18.30;85.70;;;;;;5014582;28;20224;-87
2023/08/06 10:06:47;;;;;;;23.55;21.60;;;18.20;84.60;;;;;;5014695;28;20177;-88
2023/08/06 10:09:13;;;;;;;21.20;19.52;;;18.20;84.90;;;;;;4997162;28;20181;-88
2023/08/06 10:11:39;;;;;;;20.58;18.98;;;18.30;84.80;;;;;;4997101;28;20182;-89
2023/08/06 10:14:15;;;;;;;22.10;20.27;;;18.30;84.40;;;;;;5014486;28;20635;-88
2023/08/06 10:16:42;;;;;;;20.98;19.13;;;18.30;84.80;;;;;;4997012;28;20205;-89
2023/08/06 10:19:11;;;;;;;21.27;19.60;;;18.20;84.70;;;;;;4996865;28;20177;-87
2023/08/06 10:21:40;;;;;;;21.55;19.55;;;18.20;84.50;;;;;;4996886;28;20208;-88
2023/08/06 10:24:11;;;;;;;19.85;18.25;;;18.20;84.60;;;;;;5015200;28;20695;-88
2023/08/06 10:26:37;;;;;;;21.40;19.40;;;18.30;85.10;;;;;;4997596;28;20263;-88
2023/08/06 10:29:36;;;;;;;22.02;20.08;;;18.20;84.60;;;;;;5014365;28;20224;-87
2023/08/06 10:32:02;;;;;;;21.75;20.10;;;18.20;84.70;;;;;;4996586;28;20189;-88
2023/08/06 10:34:58;;;;;;;20.30;18.65;;;18.30;84.80;;;;;;4996728;28;20251;-88
2023/08/06 10:37:35;;;;;;;20.75;19.27;;;18.30;84.90;;;;;;5014095;28;20170;-89
2023/08/06 10:40:01;;;;;;;20.83;19.23;;;18.30;84.40;;;;;;5014418;28;20245;-88
2023/08/06 10:42:28;;;;;;;20.38;18.70;;;18.20;84.30;;;;;;4996628;28;20699;-89
2023/08/06 10:45:15;;;;;;;19.70;18.30;;;18.30;84.70;;;;;;4996296;28;20711;-90
2023/08/06 10:47:41;;;;;;;20.85;18.88;;;18.20;83.30;;;;;;4996368;28;20181;-88
2023/08/06 10:50:17;;;;;;;18.70;17.30;;;18.30;83.20;;;;;;5013897;28;20177;-90
2023/08/06 10:52:47;;;;;;;19.63;18.15;;;18.30;82.90;;;;;;4996445;28;20172;-89
2023/08/06 10:55:13;;;;;;;20.80;19.20;;;18.50;82.70;;;;;;4996176;28;20197;-89
2023/08/06 10:57:39;;;;;;;17.42;16.17;;;18.80;83.20;;;;;;4996216;28;20188;-90
2023/08/06 11:00:06;;;;;;;19.52;18.00;;;19.20;83.20;;;;;;4996073;28;20181;-89
2023/08/06 11:02:36;;;;;;;20.05;18.52;;;19.20;79.60;;;;;;5013816;28;20201;-89
2023/08/06 11:05:09;;;;;;;21.13;19.23;;;19.50;81.20;;;;;;4996353;28;20280;-90
2023/08/06 11:07:35;;;;;;;21.42;19.85;;;19.40;79.20;;;;;;4996068;28;20261;-90
2023/08/06 11:10:12;;;;;;;22.88;21.27;;;19.20;78.00;;;;;;4995289;28;20292;-89
2023/08/06 11:12:38;;;;;;;22.67;20.73;;;19.10;78.30;;;;;;5013872;28;20532;-90
2023/08/06 11:15:04;;;;;;;22.10;20.33;;;19.20;79.70;;;;;;4996001;28;20280;-89
2023/08/06 11:17:32;;;;;;;22.75;21.17;;;19.20;78.60;;;;;;4996131;28;20177;-90
2023/08/06 11:20:02;;;;;;;22.88;21.27;;;19.20;78.20;;;;;;4995896;28;20227;-89
2023/08/06 11:22:28;;;;;;;22.08;20.45;;;19.20;77.80;;;;;;5013414;28;20197;-89
2023/08/06 11:24:54;;;;;;;23.75;21.70;;;19.30;79.10;;;;;;4995862;28;20692;-90
2023/08/06 11:27:20;;;;;;;22.55;20.65;;;19.30;78.90;;;;;;4996755;28;20181;-88
2023/08/06 11:29:45;;;;;;;21.25;19.67;;;19.40;79.10;;;;;;4995805;28;20172;-88
2023/08/06 11:32:12;;;;;;;22.17;20.48;;;19.50;79.30;;;;;;4995519;28;20201;-89
2023/08/06 11:34:40;;;;;;;21.73;20.13;;;19.50;79.10;;;;;;4995824;28;20355;-89
2023/08/06 11:37:07;;;;;;;22.90;20.80;;;19.40;78.30;;;;;;5013182;28;20645;-89
2023/08/06 11:39:37;;;;;;;23.30;21.30;;;19.30;79.30;;;;;;4995430;28;20187;-88
2023/08/06 11:42:04;;;;;;;21.80;20.02;;;19.30;79.90;;;;;;5013048;28;20287;-88
2023/08/06 11:44:34;;;;;;;22.20;20.23;;;19.40;80.50;;;;;;4996548;28;20654;-89
2023/08/06 11:47:05;;;;;;;21.95;20.15;;;19.40;79.70;;;;;;4996818;28;20179;-91
2023/08/06 11:49:41;;;;;;;23.67;21.38;;;19.40;79.60;;;;;;5013282;28;20684;-90
2023/08/06 11:52:22;;;;;;;22.75;21.25;;;19.30;78.80;;;;;;4996884;28;20228;-90
2023/08/06 11:54:59;;;;;;;22.70;21.00;;;19.30;79.50;;;;;;4995655;28;20204;-90
2023/08/06 11:57:25;;;;;;;22.63;20.73;;;19.40;79.20;;;;;;4996550;28;20512;-91
2023/08/06 11:59:50;;;;;;;21.65;20.08;;;19.60;80.20;;;;;;4995584;28;20205;-90
2023/08/06 12:02:16;;;;;;;22.50;20.80;;;19.60;80.10;;;;;;5013747;28;20193;-90
2023/08/06 12:05:24;;;;;;;21.60;19.75;;;19.50;79.20;;;;;;4995654;28;20692;-90
2023/08/06 12:07:55;;;;;;;22.30;20.42;;;19.60;78.80;;;;;;4956382;28;20200;-89
2023/08/06 12:10:21;;;;;;;20.92;19.17;;;19.60;80.10;;;;;;4972467;28;20202;-89
2023/08/06 12:12:47;;;;;;;22.98;21.17;;;19.70;79.50;;;;;;4993139;28;20268;-89
2023/08/06 12:15:14;;;;;;;23.50;21.70;;;19.60;79.50;;;;;;4996004;28;20288;-89
2023/08/06 12:17:39;;;;;;;22.73;20.92;;;19.60;79.10;;;;;;4995442;28;20177;-89
2023/08/06 12:20:06;;;;;;;21.60;19.95;;;19.70;80.60;;;;;;4996398;28;20268;-89
2023/08/06 12:22:35;;;;;;;21.95;20.08;;;19.70;80.30;;;;;;5016340;28;20201;-89
2023/08/06 12:25:02;;;;;;;22.70;21.08;;;19.70;79.80;;;;;;5016445;28;20612;-89
2023/08/06 12:27:27;;;;;;;32.67;30.38;;;19.70;79.70;;;;;;4998954;28;20177;-89